LGKZ/KZI METAR and TAF weather

Enter ICAO airport designator
Station Type Date Time Source
LGKZ METAR 2020/07/07 12:20 UTC NOAA

LGKZ 071220Z AUTO 33006KT 310V020 //// -RA ////// 21/18 Q1010 RE//


Station Type Date Time Source
LGKZ Decoded METAR 2020/07/07 12:20 UTC NOAA

Kozani Airport , Greece (LGKZ) 40-18N 021-47E 627M
Jul 07, 2020 - 08:20 AM EDT / 2020.07.07 1220 UTC
Wind: from the NNW (330 degrees) at 7 MPH (6 KT) (direction variable):0
Weather: light rain
Temperature: 69 F (21 C)
Dew Point: 64 F (18 C)
Relative Humidity: 82%
Pressure (altimeter): 29.83 in. Hg (1010 hPa)
ob: LGKZ 071220Z AUTO 33006KT 310V020 //// -RA ////// 21/18 Q1010 RE//
cycle: 12

Station Type Date Time Source
LGKZ TAF UTC NOAA

Error!

Example: see airport list